Time;durP1;ratioP1;P1;durP2;ratioP2;P2;SDS_P1;SDS_P2;PMS_P1;PMS_P2;Temp;Humidity;BMP_temperature;BMP_pressure;BME280_temperature;BME280_humidity;BME280_pressure;Samples;Min_cycle;Max_cycle;Signal;HPM_P1;HPM_P2
2022/03/16 00:00:33;;;;;;;42.58;23.63;;;;;;;5.38;100.00;102575.66;6159098;23;20401;-78
2022/03/16 00:03:02;;;;;;;38.30;23.67;;;;;;;5.37;100.00;102583.41;6195313;23;20020;-80
2022/03/16 00:05:30;;;;;;;30.98;21.30;;;;;;;5.35;100.00;102583.38;6193379;23;20016;-78
2022/03/16 00:07:59;;;;;;;37.33;20.85;;;;;;;5.35;100.00;102578.13;6218225;23;20015;-78
2022/03/16 00:10:30;;;;;;;34.35;20.25;;;;;;;5.35;100.00;102577.22;6184856;23;20113;-77
2022/03/16 00:12:58;;;;;;;33.20;20.30;;;;;;;5.36;100.00;102582.53;6198565;23;20473;-79
2022/03/16 00:15:27;;;;;;;37.22;21.88;;;;;;;5.36;100.00;102576.41;6154662;23;20024;-80
2022/03/16 00:17:55;;;;;;;33.25;20.40;;;;;;;5.34;100.00;102575.44;6216376;23;20024;-78
2022/03/16 00:20:24;;;;;;;35.50;21.60;;;;;;;5.32;100.00;102580.56;6216543;23;20123;-78
2022/03/16 00:22:52;;;;;;;34.97;21.33;;;;;;;5.28;100.00;102576.00;6216855;23;20020;-78
2022/03/16 00:25:23;;;;;;;31.08;20.17;;;;;;;5.26;100.00;102585.50;6214577;23;20021;-78
2022/03/16 00:27:52;;;;;;;34.03;21.92;;;;;;;5.21;100.00;102581.72;6206040;23;20446;-78
2022/03/16 00:30:21;;;;;;;34.05;21.75;;;;;;;5.18;100.00;102589.41;6214374;23;20584;-78
2022/03/16 00:32:49;;;;;;;35.20;21.75;;;;;;;5.12;100.00;102583.84;6205343;23;20016;-79
2022/03/16 00:35:18;;;;;;;38.60;23.38;;;;;;;5.10;100.00;102590.72;6187836;23;20218;-78
2022/03/16 00:37:46;;;;;;;33.83;22.05;;;;;;;5.07;100.00;102592.34;6200540;23;20025;-78
2022/03/16 00:40:16;;;;;;;37.67;22.88;;;;;;;5.05;100.00;102600.94;6201478;23;20351;-80
2022/03/16 00:42:50;;;;;;;35.47;20.55;;;;;;;5.01;100.00;102593.72;6218328;23;20020;-79
2022/03/16 00:45:19;;;;;;;36.90;21.25;;;;;;;4.95;100.00;102602.13;6187247;23;20024;-77
2022/03/16 00:47:48;;;;;;;35.95;22.50;;;;;;;4.91;100.00;102601.88;6183790;23;20024;-79
2022/03/16 00:50:17;;;;;;;38.67;23.10;;;;;;;4.89;100.00;102612.25;6130377;23;20017;-78
2022/03/16 00:52:46;;;;;;;35.42;23.15;;;;;;;4.85;100.00;102610.28;6238822;23;20236;-80
2022/03/16 00:55:14;;;;;;;38.10;22.23;;;;;;;4.79;100.00;102600.41;6127655;23;20024;-79
2022/03/16 00:57:43;;;;;;;36.20;21.42;;;;;;;4.75;100.00;102602.78;6174919;23;20017;-78
2022/03/16 01:00:12;;;;;;;37.47;22.45;;;;;;;4.72;100.00;102600.88;6200862;23;20122;-79
2022/03/16 01:02:41;;;;;;;41.42;23.88;;;;;;;4.68;100.00;102605.03;6153870;23;20035;-78
2022/03/16 01:05:10;;;;;;;41.58;25.00;;;;;;;4.63;100.00;102598.69;6177107;23;20138;-79
2022/03/16 01:07:38;;;;;;;42.85;24.75;;;;;;;4.63;100.00;102598.69;6164625;23;20020;-78
2022/03/16 01:10:07;;;;;;;42.50;23.83;;;;;;;4.63;100.00;102595.13;6172983;23;20678;-79
2022/03/16 01:12:36;;;;;;;36.40;23.45;;;;;;;4.62;100.00;102596.88;6188694;23;20031;-78
2022/03/16 01:15:06;;;;;;;42.72;25.20;;;;;;;4.62;100.00;102596.88;6190491;23;20548;-78
2022/03/16 01:17:37;;;;;;;38.55;24.02;;;;;;;4.61;100.00;102594.16;6244244;23;20027;-78
2022/03/16 01:20:06;;;;;;;39.70;23.40;;;;;;;4.63;100.00;102585.63;6214071;23;20031;-78
2022/03/16 01:22:35;;;;;;;38.03;22.58;;;;;;;4.63;100.00;102584.69;6195319;23;20028;-78
2022/03/16 01:25:04;;;;;;;38.88;23.88;;;;;;;4.61;100.00;102573.28;6203553;23;20325;-79
2022/03/16 01:27:33;;;;;;;37.60;23.02;;;;;;;4.61;100.00;102570.66;6219841;23;20342;-78
2022/03/16 01:30:03;;;;;;;36.88;23.73;;;;;;;4.61;100.00;102568.97;6225326;23;20294;-78
2022/03/16 01:32:31;;;;;;;40.03;25.05;;;;;;;4.66;100.00;102572.72;6195454;23;20016;-78
2022/03/16 01:35:02;;;;;;;39.05;24.75;;;;;;;4.70;100.00;102573.78;6177945;23;20007;-78
2022/03/16 01:37:31;;;;;;;45.10;26.27;;;;;;;4.71;100.00;102579.88;6221128;23;20043;-79
2022/03/16 01:40:03;;;;;;;40.75;23.75;;;;;;;4.72;100.00;102576.47;6191204;23;20111;-78
2022/03/16 01:42:32;;;;;;;39.00;22.73;;;;;;;4.72;100.00;102579.97;6184606;23;20346;-78
2022/03/16 01:45:01;;;;;;;37.25;24.60;;;;;;;4.74;100.00;102577.47;6165985;23;20867;-78
2022/03/16 01:47:31;;;;;;;39.77;23.43;;;;;;;4.74;100.00;102574.84;6245807;23;20027;-78
2022/03/16 01:49:59;;;;;;;34.45;22.20;;;;;;;4.73;100.00;102579.19;6215439;23;20552;-78
2022/03/16 01:52:29;;;;;;;37.83;22.30;;;;;;;4.74;100.00;102585.28;6220042;23;20484;-78
2022/03/16 01:55:00;;;;;;;40.75;22.30;;;;;;;4.73;100.00;102578.28;6182803;23;20047;-77
2022/03/16 01:57:31;;;;;;;39.35;22.60;;;;;;;4.69;100.00;102598.13;6220429;23;20020;-78
2022/03/16 02:00:07;;;;;;;36.88;22.30;;;;;;;4.66;100.00;102596.22;6208927;23;20231;-77
2022/03/16 02:02:46;;;;;;;36.58;22.42;;;;;;;4.64;100.00;102595.22;6201786;23;20031;-78
2022/03/16 02:05:15;;;;;;;34.92;21.80;;;;;;;4.63;100.00;102605.59;6216798;23;20028;-79
2022/03/16 02:07:45;;;;;;;42.08;24.27;;;;;;;4.60;100.00;102606.31;6182479;23;20028;-77
2022/03/16 02:10:15;;;;;;;;;;;;;;;4.57;100.00;102603.53;6156086;23;20027;-79
2022/03/16 02:12:49;;;;;;;40.10;22.67;;;;;;;4.54;100.00;102621.66;6216651;23;19922;-79
2022/03/16 02:15:20;;;;;;;39.50;23.00;;;;;;;4.51;100.00;102621.47;6224968;23;20213;-78
2022/03/16 02:17:50;;;;;;;41.15;24.58;;;;;;;4.51;100.00;102626.69;6210285;23;20457;-78
2022/03/16 02:20:19;;;;;;;38.13;22.67;;;;;;;4.47;100.00;102628.22;6156462;23;20020;-78
2022/03/16 02:22:54;;;;;;;47.03;24.33;;;;;;;4.43;100.00;102626.25;6193492;23;20044;-78
2022/03/16 02:25:27;;;;;;;38.42;22.60;;;;;;;4.38;100.00;102632.91;6205515;23;20508;-80
2022/03/16 02:27:57;;;;;;;40.53;22.25;;;;;;;4.30;100.00;102637.72;6195016;23;20016;-79
2022/03/16 02:30:28;;;;;;;40.58;24.05;;;;;;;4.23;100.00;102634.66;6185952;23;20012;-79
2022/03/16 02:32:57;;;;;;;47.15;25.30;;;;;;;4.16;100.00;102630.81;6226159;23;20349;-79
2022/03/16 02:35:31;;;;;;;39.60;23.48;;;;;;;4.10;100.00;102633.97;6231154;23;20217;-79
2022/03/16 02:38:00;;;;;;;36.15;23.67;;;;;;;4.08;100.00;102638.19;6240887;23;20031;-78
2022/03/16 02:40:29;;;;;;;35.85;22.58;;;;;;;4.05;100.00;102629.28;6217038;23;20012;-79
2022/03/16 02:42:58;;;;;;;37.00;23.33;;;;;;;4.04;100.00;102643.13;6246031;23;20450;-79
2022/03/16 02:45:26;;;;;;;34.65;23.40;;;;;;;4.02;100.00;102648.25;6213278;23;20020;-79
2022/03/16 02:48:00;;;;;;;33.83;22.05;;;;;;;4.00;100.00;102651.59;6234763;23;20019;-79
2022/03/16 02:50:29;;;;;;;46.65;25.92;;;;;;;3.95;100.00;102645.19;6205475;23;20138;-79
2022/03/16 02:52:59;;;;;;;46.00;25.45;;;;;;;3.89;100.00;102651.88;6183485;23;20016;-78
2022/03/16 02:55:48;;;;;;;40.92;23.05;;;;;;;3.84;100.00;102653.28;6223441;23;20020;-78
2022/03/16 02:58:19;;;;;;;38.08;23.40;;;;;;;3.79;100.00;102652.13;6216003;23;20047;-78
2022/03/16 03:00:47;;;;;;;38.35;23.13;;;;;;;3.75;100.00;102649.25;6243219;23;20013;-78
2022/03/16 03:03:17;;;;;;;37.08;23.92;;;;;;;3.71;100.00;102649.03;6194894;23;20370;-78
2022/03/16 03:05:46;;;;;;;44.72;25.30;;;;;;;3.70;100.00;102648.94;6236887;23;20020;-78
2022/03/16 03:08:18;;;;;;;42.25;23.95;;;;;;;3.70;100.00;102648.94;6189228;23;20020;-78
2022/03/16 03:10:48;;;;;;;44.38;25.00;;;;;;;3.68;100.00;102648.84;6244807;23;20023;-79
2022/03/16 03:13:18;;;;;;;44.03;24.90;;;;;;;3.68;100.00;102640.13;6242785;23;20363;-79
2022/03/16 03:15:46;;;;;;;43.33;25.08;;;;;;;3.66;100.00;102639.16;6232075;23;20013;-79
2022/03/16 03:18:15;;;;;;;33.17;23.70;;;;;;;3.65;100.00;102645.19;6174627;23;20028;-79
2022/03/16 03:20:43;;;;;;;37.83;24.48;;;;;;;3.66;100.00;102636.53;6221042;23;20031;-78
2022/03/16 03:23:12;;;;;;;39.30;24.88;;;;;;;3.66;100.00;102645.25;6241715;23;20020;-78
2022/03/16 03:25:40;;;;;;;40.92;23.48;;;;;;;3.65;100.00;102634.75;6220379;23;20071;-79
2022/03/16 03:28:09;;;;;;;40.00;24.85;;;;;;;3.67;100.00;102638.34;6185196;23;20024;-79
2022/03/16 03:30:37;;;;;;;40.42;24.00;;;;;;;3.65;100.00;102634.75;6166198;23;20020;-78
2022/03/16 03:33:15;;;;;;;38.25;23.48;;;;;;;3.64;100.00;102641.66;6197263;23;20008;-78
2022/03/16 03:35:44;;;;;;;38.67;23.40;;;;;;;3.63;100.00;102644.16;6217409;23;20031;-79
2022/03/16 03:38:13;;;;;;;38.05;22.45;;;;;;;3.62;100.00;102642.38;6248451;23;20024;-79
2022/03/16 03:40:41;;;;;;;38.40;22.77;;;;;;;3.60;100.00;102641.41;6197386;23;20024;-78
2022/03/16 03:43:10;;;;;;;41.83;24.27;;;;;;;3.58;100.00;102640.41;6196468;23;20020;-78
2022/03/16 03:45:38;;;;;;;38.50;24.20;;;;;;;3.55;100.00;102642.81;6249832;23;20031;-78
2022/03/16 03:48:07;;;;;;;43.83;24.52;;;;;;;3.55;100.00;102637.59;6180029;23;20020;-79
2022/03/16 03:50:35;;;;;;;42.00;26.10;;;;;;;3.53;100.00;102634.00;6232574;23;20054;-78
2022/03/16 03:53:04;;;;;;;41.53;25.55;;;;;;;3.54;100.00;102636.72;6219870;23;20024;-78
2022/03/16 03:55:32;;;;;;;52.80;27.00;;;;;;;3.54;100.00;102647.13;6215672;23;20540;-80
2022/03/16 03:58:04;;;;;;;44.10;24.15;;;;;;;3.55;100.00;102642.81;6194405;23;20346;-78
2022/03/16 04:00:32;;;;;;;40.83;24.45;;;;;;;3.54;100.00;102641.94;6158850;23;20020;-79
2022/03/16 04:03:03;;;;;;;38.67;24.35;;;;;;;3.52;100.00;102635.72;6192349;23;20019;-79
2022/03/16 04:05:32;;;;;;;41.30;24.95;;;;;;;3.50;100.00;102630.41;6180600;23;20252;-79
2022/03/16 04:08:01;;;;;;;44.35;25.70;;;;;;;3.48;100.00;102626.81;6220233;23;20027;-78
2022/03/16 04:10:29;;;;;;;50.22;27.95;;;;;;;3.50;100.00;102639.94;6133426;23;20372;-79
2022/03/16 04:12:58;;;;;;;47.42;27.05;;;;;;;3.51;100.00;102642.63;6185572;23;20031;-79
2022/03/16 04:15:26;;;;;;;54.40;28.63;;;;;;;3.53;100.00;102634.00;6217572;23;20016;-78
2022/03/16 04:17:55;;;;;;;48.85;26.77;;;;;;;3.54;100.00;102651.47;6240196;23;20024;-79
2022/03/16 04:20:23;;;;;;;46.53;27.67;;;;;;;3.59;100.00;102650.00;6213394;23;20020;-80
2022/03/16 04:22:52;;;;;;;55.20;27.88;;;;;;;3.59;100.00;102642.19;6146969;23;20472;-78
2022/03/16 04:25:20;;;;;;;43.17;26.65;;;;;;;3.59;100.00;102652.63;6215323;23;20020;-79
2022/03/16 04:27:50;;;;;;;45.88;26.08;;;;;;;3.59;100.00;102644.78;6194598;23;20446;-79
2022/03/16 04:30:18;;;;;;;51.10;26.00;;;;;;;3.56;100.00;102645.53;6234721;23;20397;-79
2022/03/16 04:32:51;;;;;;;46.35;25.23;;;;;;;3.53;100.00;102644.44;6248610;23;20012;-79
2022/03/16 04:35:20;;;;;;;47.40;26.92;;;;;;;3.49;100.00;102646.84;6149847;23;20381;-78
2022/03/16 04:37:49;;;;;;;42.33;26.10;;;;;;;3.46;100.00;102636.25;6236143;23;20450;-79
2022/03/16 04:40:20;;;;;;;42.20;25.02;;;;;;;3.44;100.00;102630.03;6221442;23;20027;-79
2022/03/16 04:42:49;;;;;;;43.58;26.83;;;;;;;3.41;100.00;102627.25;6223715;23;20016;-79
2022/03/16 04:45:18;;;;;;;57.80;29.50;;;;;;;3.40;100.00;102617.59;6179887;23;20632;-78
2022/03/16 04:47:46;;;;;;;51.83;29.30;;;;;;;3.40;100.00;102619.31;6191197;23;20050;-78
2022/03/16 04:50:15;;;;;;;48.22;28.88;;;;;;;3.40;100.00;102617.59;6153136;23;20031;-79
2022/03/16 04:52:45;;;;;;;52.72;29.83;;;;;;;3.44;100.00;102618.69;6201579;23;20020;-79
2022/03/16 04:55:16;;;;;;;57.50;31.13;;;;;;;3.45;100.00;102618.78;6247913;23;20023;-78
2022/03/16 04:57:47;;;;;;;48.00;28.00;;;;;;;3.48;100.00;102605.97;6213133;23;20465;-78
2022/03/16 05:00:16;;;;;;;52.17;27.75;;;;;;;3.50;100.00;102606.06;6160625;23;20138;-78
2022/03/16 05:02:45;;;;;;;49.47;27.95;;;;;;;3.50;100.00;102609.56;6172946;23;20016;-80
2022/03/16 05:05:13;;;;;;;52.90;29.20;;;;;;;3.50;100.00;102603.44;6238999;23;20020;-78
2022/03/16 05:07:42;;;;;;;50.20;29.00;;;;;;;3.50;100.00;102608.66;6180350;23;20024;-78
2022/03/16 05:10:11;;;;;;;50.72;28.90;;;;;;;3.53;100.00;102608.84;6194276;23;20020;-79
2022/03/16 05:12:41;;;;;;;54.05;30.20;;;;;;;3.55;100.00;102607.22;6193927;23;20345;-78
2022/03/16 05:15:16;;;;;;;50.20;27.92;;;;;;;3.57;100.00;102610.81;6217637;23;20024;-80
2022/03/16 05:17:47;;;;;;;54.75;29.27;;;;;;;3.59;100.00;102613.50;6213231;23;20024;-78
2022/03/16 05:20:16;;;;;;;49.47;26.88;;;;;;;3.58;100.00;102617.84;6240277;23;20020;-78
2022/03/16 05:22:49;;;;;;;46.42;27.50;;;;;;;3.60;100.00;102623.16;6188002;23;20016;-80
2022/03/16 05:25:20;;;;;;;63.88;30.88;;;;;;;3.62;100.00;102624.13;6191008;23;20111;-78
2022/03/16 05:27:49;;;;;;;53.60;29.95;;;;;;;3.65;100.00;102633.03;6194680;23;20024;-79
2022/03/16 05:30:20;;;;;;;46.42;26.98;;;;;;;3.68;100.00;102628.00;6211871;23;20031;-79
2022/03/16 05:32:53;;;;;;;53.58;29.25;;;;;;;3.70;100.00;102629.00;6220230;23;20472;-79
2022/03/16 05:35:22;;;;;;;46.60;27.65;;;;;;;3.74;100.00;102645.72;6230670;23;20047;-79
2022/03/16 05:37:50;;;;;;;58.33;29.95;;;;;;;3.77;100.00;102640.69;6204199;23;20369;-78
2022/03/16 05:40:19;;;;;;;41.38;26.75;;;;;;;3.79;100.00;102648.63;6240225;23;20515;-79
2022/03/16 05:42:48;;;;;;;54.00;29.80;;;;;;;3.79;100.00;102654.72;6183369;23;20024;-79
2022/03/16 05:45:22;;;;;;;50.88;29.65;;;;;;;3.78;100.00;102652.94;6234565;23;20138;-79
2022/03/16 05:47:51;;;;;;;58.10;31.40;;;;;;;3.80;100.00;102651.31;6246546;23;20019;-77
2022/03/16 05:50:19;;;;;;;51.53;29.83;;;;;;;3.79;100.00;102654.72;6242016;23;20039;-79
2022/03/16 05:52:48;;;;;;;54.78;31.27;;;;;;;3.81;100.00;102644.38;6214771;23;20473;-79
2022/03/16 05:55:16;;;;;;;60.20;32.42;;;;;;;3.84;100.00;102647.19;6167406;23;20142;-79
2022/03/16 05:57:45;;;;;;;52.22;31.45;;;;;;;3.86;100.00;102646.47;6197413;23;20022;-78
2022/03/16 06:00:17;;;;;;;52.65;31.33;;;;;;;3.90;100.00;102647.53;6204437;23;20020;-79
2022/03/16 06:02:46;;;;;;;56.45;31.63;;;;;;;3.92;100.00;102645.03;6170855;23;20020;-80
2022/03/16 06:05:16;;;;;;;55.70;30.70;;;;;;;3.96;100.00;102640.06;6156891;23;20027;-78
2022/03/16 06:07:45;;;;;;;55.65;30.48;;;;;;;3.99;100.00;102640.25;6207111;23;20016;-78
2022/03/16 06:10:17;;;;;;;55.53;32.75;;;;;;;4.03;100.00;102643.97;6194926;23;20103;-79
2022/03/16 06:13:03;;;;;;;53.35;30.33;;;;;;;4.05;100.00;102634.50;6219460;23;20016;-78
2022/03/16 06:15:40;;;;;;;51.20;30.90;;;;;;;4.08;100.00;102647.72;6239435;23;20289;-79
2022/03/16 06:18:11;;;;;;;56.92;32.05;;;;;;;4.11;100.00;102650.50;6217593;23;20016;-78
2022/03/16 06:20:40;;;;;;;59.07;30.63;;;;;;;4.12;100.00;102651.41;6196448;23;20024;-78
2022/03/16 06:23:08;;;;;;;55.63;30.20;;;;;;;4.14;100.00;102658.53;6213650;23;20019;-78
2022/03/16 06:25:40;;;;;;;49.72;28.15;;;;;;;4.16;100.00;102662.13;6232392;23;20196;-78
2022/03/16 06:28:09;;;;;;;48.42;27.88;;;;;;;4.20;100.00;102668.44;6233680;23;20451;-78
2022/03/16 06:30:38;;;;;;;51.40;28.90;;;;;;;4.21;100.00;102671.09;6209240;23;20342;-79
2022/03/16 06:33:06;;;;;;;56.75;29.60;;;;;;;4.22;100.00;102669.41;6211307;23;20042;-78
2022/03/16 06:35:35;;;;;;;54.72;30.58;;;;;;;4.24;100.00;102671.28;6209509;23;20370;-78
2022/03/16 06:38:04;;;;;;;54.72;30.35;;;;;;;4.26;100.00;102661.84;6207663;23;20074;-78
2022/03/16 06:40:32;;;;;;;45.42;27.88;;;;;;;4.27;100.00;102668.88;6142084;23;20035;-78
2022/03/16 06:43:01;;;;;;;52.97;30.95;;;;;;;4.29;100.00;102671.53;6203022;23;20352;-78
2022/03/16 06:45:30;;;;;;;50.13;29.92;;;;;;;4.29;100.00;102680.28;6177210;23;20027;-77
2022/03/16 06:48:00;;;;;;;50.72;29.08;;;;;;;4.30;100.00;102676.84;6235412;23;20386;-79
2022/03/16 06:50:29;;;;;;;45.47;24.88;;;;;;;4.32;100.00;102676.06;6214937;23;20755;-78
2022/03/16 06:53:00;;;;;;;48.80;27.88;;;;;;;4.34;100.00;102682.25;6218617;23;20027;-79
2022/03/16 06:55:31;;;;;;;50.33;28.50;;;;;;;4.34;100.00;102679.66;6236622;23;20027;-78
2022/03/16 06:58:00;;;;;;;53.33;29.70;;;;;;;4.35;100.00;102695.41;6227845;23;20016;-78
2022/03/16 07:00:28;;;;;;;52.80;28.00;;;;;;;4.35;100.00;102700.63;6159549;23;20024;-78
2022/03/16 07:03:00;;;;;;;51.25;28.92;;;;;;;4.38;100.00;102703.41;6164617;23;20024;-78
2022/03/16 07:05:35;;;;;;;52.00;28.30;;;;;;;4.39;100.00;102699.09;6198916;23;20126;-77
2022/03/16 07:08:07;;;;;;;48.03;28.55;;;;;;;4.39;100.00;102699.09;6242001;23;20023;-78
2022/03/16 07:10:38;;;;;;;45.00;27.98;;;;;;;4.39;100.00;102707.81;6207626;23;20020;-78
2022/03/16 07:13:11;;;;;;;47.63;29.15;;;;;;;4.42;100.00;102709.69;6227506;23;20608;-79
2022/03/16 07:15:42;;;;;;;49.05;29.13;;;;;;;4.44;100.00;102706.38;6156510;23;20013;-79
2022/03/16 07:18:12;;;;;;;46.28;27.60;;;;;;;4.49;100.00;102714.47;6219117;23;20135;-78
2022/03/16 07:20:40;;;;;;;49.15;29.83;;;;;;;4.54;100.00;102713.03;6226525;23;20051;-78
2022/03/16 07:23:11;;;;;;;51.42;28.88;;;;;;;4.59;100.00;102711.56;6117031;23;20355;-78
2022/03/16 07:25:43;;;;;;;48.85;28.83;;;;;;;4.65;100.00;102721.47;6179921;23;20306;-79
2022/03/16 07:28:22;;;;;;;;;;;;;;;4.71;100.00;102710.47;6158453;23;20285;-78
2022/03/16 07:30:51;;;;;;;50.47;28.45;;;;;;;4.78;100.00;102715.25;6170281;23;20413;-78
2022/03/16 07:33:19;;;;;;;51.75;29.60;;;;;;;4.84;100.00;102729.56;6154206;23;20017;-80
2022/03/16 07:35:50;;;;;;;;;;;;;;;4.91;100.00;102725.56;6158317;23;20017;-79
2022/03/16 07:38:20;;;;;;;51.17;27.95;;;;;;;4.96;100.00;102726.72;6173804;23;19944;-79
2022/03/16 07:40:49;;;;;;;;;;;;;;;5.02;100.00;102724.44;6216499;23;20346;-78
2022/03/16 07:43:18;;;;;;;44.80;27.52;;;;;;;5.07;100.00;102723.00;6165433;23;19962;-79
2022/03/16 07:45:49;;;;;;;54.47;31.40;;;;;;;5.12;100.00;102733.69;6172021;23;20021;-80
2022/03/16 07:48:17;;;;;;;49.50;28.77;;;;;;;5.14;100.00;102729.50;6214270;23;20020;-78
2022/03/16 07:50:52;;;;;;;46.15;27.92;;;;;;;5.23;100.00;102734.31;6182242;23;20419;-78
2022/03/16 07:53:21;;;;;;;51.47;29.02;;;;;;;5.32;100.00;102729.59;6211313;23;20027;-79
2022/03/16 07:55:55;;;;;;;47.03;29.08;;;;;;;5.42;100.00;102728.38;6241761;23;20017;-80
2022/03/16 07:58:23;;;;;;;50.08;28.92;;;;;;;5.55;100.00;102736.06;6186277;23;20036;-80
2022/03/16 08:00:52;;;;;;;52.15;29.70;;;;;;;5.70;100.00;102737.72;6151593;23;20056;-78
2022/03/16 08:03:21;;;;;;;47.90;29.48;;;;;;;5.82;100.00;102731.41;6226588;23;20025;-79
2022/03/16 08:05:50;;;;;;;43.95;29.40;;;;;;;5.96;100.00;102723.44;6204419;23;20017;-78
2022/03/16 08:08:19;;;;;;;49.42;28.42;;;;;;;6.27;100.00;102732.84;6172532;23;20025;-79
2022/03/16 08:10:48;;;;;;;40.08;26.73;;;;;;;6.70;100.00;102735.00;6217700;23;20016;-80
2022/03/16 08:13:17;;;;;;;38.35;24.92;;;;;;;7.13;100.00;102730.13;6168859;23;20031;-79
2022/03/16 08:15:50;;;;;;;35.75;24.27;;;;;;;7.56;100.00;102729.50;6167125;23;20640;-78
2022/03/16 08:18:18;;;;;;;36.65;24.25;;;;;;;7.83;100.00;102725.44;6193610;23;20020;-79
2022/03/16 08:20:47;;;;;;;34.10;23.02;;;;;;;8.04;100.00;102723.72;6229073;23;20017;-79
2022/03/16 08:23:15;;;;;;;35.75;23.38;;;;;;;8.08;100.00;102730.91;6211362;23;20462;-80
2022/03/16 08:25:57;;;;;;;36.67;25.58;;;;;;;8.17;100.00;102727.78;6211799;23;20219;-79
2022/03/16 08:28:33;;;;;;;36.40;24.02;;;;;;;8.31;100.00;102723.13;6210083;23;20026;-80
2022/03/16 08:31:08;;;;;;;33.88;23.80;;;;;;;8.53;100.00;102717.97;6206647;23;20020;-78
2022/03/16 08:33:37;;;;;;;37.67;25.17;;;;;;;8.55;100.00;102721.56;6174812;23;20021;-79
2022/03/16 08:36:07;;;;;;;36.45;25.95;;;;;;;8.55;100.00;102723.28;6164205;23;20470;-79
2022/03/16 08:38:37;;;;;;;38.05;24.35;;;;;;;8.63;100.00;102713.09;6185189;23;20025;-79
2022/03/16 08:41:07;;;;;;;36.47;24.60;;;;;;;8.70;100.00;102715.16;6196897;23;20020;-78
2022/03/16 08:43:39;;;;;;;30.77;24.00;;;;;;;8.80;100.00;102714.66;6184257;23;20035;-79
2022/03/16 08:46:11;;;;;;;34.53;25.05;;;;;;;8.90;100.00;102708.97;6222969;23;20023;-80
2022/03/16 08:48:43;;;;;;;33.25;22.67;;;;;;;8.97;100.00;102703.09;6183160;23;20032;-79
2022/03/16 08:51:12;;;;;;;34.22;23.83;;;;;;;9.02;100.00;102698.03;6236302;23;20024;-78
2022/03/16 08:53:45;;;;;;;32.47;23.30;;;;;;;9.08;100.00;102706.16;6186207;23;20017;-79
2022/03/16 08:56:14;;;;;;;31.23;23.50;;;;;;;9.20;100.00;102699.56;6235109;23;20003;-77
2022/03/16 08:58:43;;;;;;;33.47;22.52;;;;;;;9.35;100.00;102701.03;6211134;23;20029;-79
2022/03/16 09:01:12;;;;;;;34.22;22.92;;;;;;;9.57;100.00;102696.59;6236415;23;20020;-77
2022/03/16 09:03:41;;;;;;;30.48;22.75;;;;;;;9.71;100.00;102694.47;6211070;23;20020;-81
2022/03/16 09:06:13;;;;;;;32.30;22.48;;;;;;;9.82;100.00;102684.31;6198951;23;20477;-77
2022/03/16 09:08:41;;;;;;;37.95;28.48;;;;;;;10.01;100.00;102678.84;6193958;23;20025;-77
2022/03/16 09:11:14;;;;;;;38.47;28.45;;;;;;;10.19;100.00;102681.25;6223298;23;20026;-78
2022/03/16 09:13:44;;;;;;;41.03;29.77;;;;;;;10.27;100.00;102682.38;6206019;23;20016;-77
2022/03/16 09:16:13;;;;;;;42.78;31.35;;;;;;;10.32;100.00;102680.84;6228345;23;20021;-79
2022/03/16 09:18:47;;;;;;;46.78;31.05;;;;;;;10.31;100.00;102675.50;6234484;23;20016;-78
2022/03/16 09:21:15;;;;;;;44.90;31.42;;;;;;;10.22;100.00;102677.81;6210144;23;20040;-78
2022/03/16 09:23:44;;;;;;;39.58;28.60;;;;;;;10.22;100.00;102677.81;6208478;23;20020;-77
2022/03/16 09:26:16;;;;;;;41.75;29.75;;;;;;;10.24;100.00;102676.13;6233431;23;20349;-77
2022/03/16 09:28:45;;;;;;;46.22;32.08;;;;;;;10.29;100.00;102674.53;6214196;23;20032;-76
2022/03/16 09:31:14;;;;;;;42.35;29.58;;;;;;;10.29;100.00;102675.41;6210777;23;20029;-78
2022/03/16 09:33:45;;;;;;;41.92;29.95;;;;;;;10.27;100.00;102686.75;6168909;23;20017;-77
2022/03/16 09:36:14;;;;;;;45.83;28.92;;;;;;;10.33;100.00;102679.09;6216560;23;20024;-77
2022/03/16 09:38:42;;;;;;;48.20;31.75;;;;;;;10.18;100.00;102675.91;6211097;23;20019;-77
2022/03/16 09:41:12;;;;;;;48.22;33.20;;;;;;;10.14;100.00;102673.16;6213130;23;20021;-76
2022/03/16 09:43:42;;;;;;;45.80;31.25;;;;;;;10.16;100.00;102667.94;6211390;23;20020;-77
2022/03/16 09:46:19;;;;;;;44.08;31.42;;;;;;;10.13;100.00;102663.47;6187573;23;20483;-78
2022/03/16 09:48:48;;;;;;;50.28;30.73;;;;;;;10.14;100.00;102654.72;6185745;23;20106;-77
2022/03/16 09:51:18;;;;;;;42.72;29.15;;;;;;;10.19;100.00;102659.25;6192224;23;20047;-77
2022/03/16 09:53:48;;;;;;;47.15;28.63;;;;;;;10.20;100.00;102655.78;6206597;23;20150;-77
2022/03/16 09:56:20;;;;;;;40.33;26.55;;;;;;;10.23;100.00;102654.16;6212756;23;20028;-78
2022/03/16 09:58:51;;;;;;;46.47;25.85;;;;;;;10.30;100.00;102647.31;6238667;23;20130;-79
2022/03/16 10:01:20;;;;;;;35.80;24.40;;;;;;;10.39;100.00;102655.56;6211784;23;20020;-79
2022/03/16 10:03:50;;;;;;;36.93;24.77;;;;;;;10.48;100.00;102641.81;6165512;23;20035;-79
2022/03/16 10:06:24;;;;;;;37.20;23.35;;;;;;;10.50;100.00;102648.03;6201481;23;20271;-78
2022/03/16 10:14:27;;;;;;;34.28;21.88;;;;;;;10.62;100.00;102636.97;6188505;23;20047;-77
2022/03/16 10:19:54;;;;;;;32.40;22.08;;;;;;;10.74;100.00;102626.81;6199964;23;20103;-78
2022/03/16 10:22:30;;;;;;;33.80;22.48;;;;;;;10.85;100.00;102630.69;6204922;23;20020;-79
2022/03/16 10:25:00;;;;;;;29.63;22.00;;;;;;;10.89;100.00;102624.66;6210760;23;20659;-77
2022/03/16 10:27:30;;;;;;;28.02;21.13;;;;;;;10.93;100.00;102623.88;6197492;23;20138;-78
2022/03/16 10:29:58;;;;;;;29.30;21.10;;;;;;;11.04;100.00;102616.31;6202433;23;20426;-78
2022/03/16 10:32:36;;;;;;;29.02;20.63;;;;;;;11.17;100.00;102621.91;6196346;23;20021;-78
2022/03/16 10:35:05;;;;;;;25.02;19.00;;;;;;;11.21;100.00;102611.50;6168580;23;20021;-78
2022/03/16 10:37:37;;;;;;;29.55;19.83;;;;;;;11.26;100.00;102620.44;6195292;23;20016;-78
2022/03/16 10:40:15;;;;;;;31.20;20.95;;;;;;;11.26;100.00;102619.56;6210230;23;20021;-78
2022/03/16 10:48:22;;;;;;;26.75;18.70;;;;;;;11.40;100.00;102622.56;6171304;23;20020;-78
2022/03/16 10:50:58;;;;;;;25.02;17.83;;;;;;;11.41;100.00;102614.69;6163981;23;20024;-78
2022/03/16 10:53:30;;;;;;;25.33;19.42;;;;;;;11.47;100.00;102622.81;6140753;23;20029;-77
2022/03/16 10:56:00;;;;;;;25.30;19.67;;;;;;;11.51;100.00;102618.47;6148926;23;20875;-80
2022/03/16 10:58:29;;;;;;;26.67;16.83;;;;;;;11.56;100.00;102619.50;6159922;23;20021;-78
2022/03/16 11:00:58;;;;;;;24.13;16.85;;;;;;;11.66;100.00;102618.00;6212320;23;20024;-78
2022/03/16 11:03:33;;;;;;;23.38;17.10;;;;;;;11.75;100.00;102620.03;6195011;23;20035;-77
2022/03/16 11:06:03;;;;;;;23.50;18.00;;;;;;;11.76;100.00;102609.50;6234915;23;20368;-77
2022/03/16 11:08:35;;;;;;;23.17;17.73;;;;;;;11.83;100.00;102603.53;6150716;23;20118;-77
2022/03/16 11:13:28;;;;;;;22.40;17.30;;;;;;;11.93;100.00;102616.97;6204273;23;20020;-78
2022/03/16 11:13:56;;;;;;;25.83;17.58;;;;;;;11.93;100.00;102601.13;6152336;23;20021;-77
2022/03/16 11:16:26;;;;;;;24.02;17.15;;;;;;;11.96;100.00;102599.47;6229216;23;20461;-76
2022/03/16 11:19:04;;;;;;;22.88;16.83;;;;;;;11.99;100.00;102601.31;6177720;23;20017;-78
2022/03/16 11:22:02;;;;;;;26.35;16.80;;;;;;;11.97;100.00;102601.28;6151095;23;20611;-77
2022/03/16 11:24:35;;;;;;;27.35;16.30;;;;;;;11.90;100.00;102601.97;6181226;23;20238;-77
2022/03/16 11:27:32;;;;;;;25.73;16.48;;;;;;;11.89;100.00;102589.59;6233215;23;20462;-77
2022/03/16 11:30:14;;;;;;;21.17;16.05;;;;;;;11.88;100.00;102590.44;6226819;23;20020;-78
2022/03/16 11:32:46;;;;;;;22.52;16.95;;;;;;;11.93;100.00;102595.84;6186548;23;20203;-76
2022/03/16 11:35:20;;;;;;;23.75;17.77;;;;;;;11.97;100.00;102588.06;6229339;23;20020;-79
2022/03/16 11:37:51;;;;;;;23.85;15.68;;;;;;;12.06;100.00;102588.28;6194051;23;20386;-77